createdAt,value
2022-11-28T00:01:26.198Z,51.00
2022-11-28T00:03:52.975Z,52.90
2022-11-28T00:06:19.914Z,56.40
2022-11-28T00:08:46.993Z,63.20
2022-11-28T00:11:15.572Z,65.70
2022-11-28T00:13:43.577Z,61.30
2022-11-28T00:16:15.121Z,63.10
2022-11-28T00:18:41.844Z,61.90
2022-11-28T00:21:11.618Z,62.00
2022-11-28T00:23:38.723Z,59.10
2022-11-28T00:26:10.286Z,55.20
2022-11-28T00:28:37.645Z,54.10
2022-11-28T00:31:04.605Z,58.90
2022-11-28T00:33:32.805Z,59.30
2022-11-28T00:36:02.110Z,55.50
2022-11-28T00:38:29.633Z,52.40
2022-11-28T00:41:07.510Z,55.10
2022-11-28T00:43:34.473Z,57.70
2022-11-28T00:46:01.166Z,56.10
2022-11-28T00:48:27.806Z,58.20
2022-11-28T00:50:55.648Z,57.70
2022-11-28T00:53:22.328Z,56.20
2022-11-28T00:55:48.863Z,57.10
2022-11-28T00:58:15.383Z,58.50
2022-11-28T01:00:42.229Z,57.00
2022-11-28T01:03:08.786Z,57.40
2022-11-28T01:05:40.758Z,57.50
2022-11-28T01:08:07.879Z,58.10
2022-11-28T01:10:34.435Z,59.00
2022-11-28T01:13:00.967Z,58.70
2022-11-28T01:15:27.720Z,53.50
2022-11-28T01:17:54.181Z,52.10
2022-11-28T01:20:20.583Z,49.50
2022-11-28T01:22:47.140Z,48.40
2022-11-28T01:25:13.682Z,50.70
2022-11-28T01:27:40.176Z,49.20
2022-11-28T01:30:07.733Z,48.70
2022-11-28T01:32:34.428Z,52.30
2022-11-28T01:35:00.966Z,53.80
2022-11-28T01:37:29.534Z,55.40
2022-11-28T01:39:56.398Z,49.80
2022-11-28T01:42:23.345Z,46.60
2022-11-28T01:44:49.707Z,46.70
2022-11-28T01:47:21.133Z,48.60
2022-11-28T01:52:19.609Z,47.80
2022-11-28T01:54:50.900Z,46.80
2022-11-28T01:57:21.889Z,45.10
2022-11-28T01:59:56.145Z,43.40
2022-11-28T02:02:33.766Z,42.60
2022-11-28T02:05:01.335Z,41.90
2022-11-28T02:07:28.279Z,37.10
2022-11-28T02:09:55.336Z,37.20
2022-11-28T02:12:40.297Z,36.20
2022-11-28T02:15:26.959Z,35.70
2022-11-28T02:18:02.568Z,31.80
2022-11-28T02:20:52.149Z,31.40
2022-11-28T02:23:23.613Z,33.10
2022-11-28T02:29:02.186Z,29.80
2022-11-28T02:31:56.699Z,31.50
2022-11-28T02:34:52.520Z,32.10
2022-11-28T02:37:34.797Z,29.80
2022-11-28T02:40:27.223Z,31.10
2022-11-28T02:43:05.410Z,25.60
2022-11-28T02:45:49.919Z,24.90
2022-11-28T02:48:34.695Z,24.80
2022-11-28T02:51:16.723Z,22.60
2022-11-28T02:53:46.022Z,23.10
2022-11-28T02:56:13.250Z,21.90
2022-11-28T02:58:40.296Z,21.60
2022-11-28T03:01:17.613Z,22.00
2022-11-28T03:03:53.140Z,21.30
2022-11-28T03:06:47.840Z,27.20
2022-11-28T03:09:44.242Z,25.70
2022-11-28T03:12:35.406Z,28.90
2022-11-28T03:15:05.139Z,28.60
2022-11-28T03:17:40.594Z,30.50
2022-11-28T03:20:21.051Z,31.10
2022-11-28T03:22:56.216Z,32.00
2022-11-28T03:25:44.841Z,32.20
2022-11-28T03:28:26.438Z,36.00
2022-11-28T03:33:27.697Z,33.20
2022-11-28T03:36:09.202Z,33.70
2022-11-28T03:38:41.377Z,34.30
2022-11-28T03:41:15.113Z,34.40
2022-11-28T03:43:50.042Z,32.60
2022-11-28T03:46:20.380Z,33.00
2022-11-28T03:48:51.299Z,37.90
2022-11-28T03:51:25.552Z,30.30
2022-11-28T03:53:59.635Z,30.80
2022-11-28T03:56:41.640Z,29.60
2022-11-28T03:59:15.959Z,28.10
2022-11-28T04:01:54.800Z,28.20
2022-11-28T04:04:32.107Z,27.70
2022-11-28T04:07:18.343Z,27.80
2022-11-28T04:09:53.972Z,30.10
2022-11-28T04:12:44.856Z,31.40
2022-11-28T04:15:22.663Z,23.30
2022-11-28T04:18:00.098Z,26.20
2022-11-28T04:20:32.527Z,28.10
2022-11-28T04:23:07.284Z,30.70
2022-11-28T04:25:38.016Z,29.10
2022-11-28T04:28:15.743Z,29.00
2022-11-28T04:30:44.553Z,31.70
2022-11-28T04:33:15.382Z,33.50
2022-11-28T04:35:47.423Z,22.30
2022-11-28T04:38:14.242Z,32.30
2022-11-28T04:41:22.289Z,33.10
2022-11-28T04:44:00.195Z,32.60
2022-11-28T04:46:36.471Z,33.20
2022-11-28T04:49:03.409Z,33.30
2022-11-28T04:51:51.434Z,34.00
2022-11-28T04:54:30.904Z,31.10
2022-11-28T04:57:31.752Z,29.60
2022-11-28T05:00:01.211Z,27.70
2022-11-28T05:02:29.489Z,28.30
2022-11-28T05:04:56.082Z,29.30
2022-11-28T05:07:23.187Z,27.80
2022-11-28T05:09:50.301Z,27.80
2022-11-28T05:12:17.238Z,26.00
2022-11-28T05:14:43.860Z,25.80
2022-11-28T05:17:13.274Z,24.60
2022-11-28T05:19:39.839Z,22.90
2022-11-28T05:22:06.227Z,23.10
2022-11-28T05:24:32.649Z,22.80
2022-11-28T05:26:59.126Z,21.40
2022-11-28T05:29:25.663Z,21.40
2022-11-28T05:31:52.172Z,20.40
2022-11-28T05:34:18.712Z,20.40
2022-11-28T05:36:45.111Z,21.10
2022-11-28T05:39:11.495Z,21.40
2022-11-28T05:41:37.966Z,21.80
2022-11-28T05:44:04.403Z,22.00
2022-11-28T05:46:30.858Z,22.90
2022-11-28T05:48:57.413Z,24.10
2022-11-28T05:51:24.521Z,24.00
2022-11-28T05:53:51.088Z,23.70
2022-11-28T05:56:19.944Z,24.60
2022-11-28T05:58:46.722Z,40.90
2022-11-28T06:01:16.325Z,34.90
2022-11-28T06:03:44.138Z,27.10
2022-11-28T06:06:17.215Z,26.90
2022-11-28T06:08:44.803Z,26.70
2022-11-28T06:11:12.128Z,30.70
2022-11-28T06:13:38.882Z,31.70
2022-11-28T06:16:17.873Z,32.30
2022-11-28T06:18:45.171Z,31.70
2022-11-28T06:21:14.174Z,31.60
2022-11-28T06:23:40.865Z,35.20
2022-11-28T06:26:12.881Z,32.40
2022-11-28T06:28:40.137Z,32.80
2022-11-28T06:31:11.977Z,33.80
2022-11-28T06:33:38.989Z,33.50
2022-11-28T06:36:07.205Z,31.90
2022-11-28T06:38:34.588Z,35.30
2022-11-28T06:41:05.028Z,36.70
2022-11-28T06:43:32.187Z,24.20
2022-11-28T06:45:59.377Z,33.20
2022-11-28T06:48:26.989Z,37.10
2022-11-28T06:50:54.113Z,38.80
2022-11-28T06:53:20.898Z,40.60
2022-11-28T06:55:47.399Z,41.20
2022-11-28T06:58:13.887Z,44.70
2022-11-28T07:00:40.624Z,38.50
2022-11-28T07:03:07.137Z,35.50
2022-11-28T07:05:33.538Z,35.70
2022-11-28T07:08:00.541Z,34.10
2022-11-28T07:10:28.429Z,35.00
2022-11-28T07:13:04.896Z,31.10
2022-11-28T07:15:32.011Z,30.60
2022-11-28T07:17:58.458Z,35.20
2022-11-28T07:20:24.884Z,32.50
2022-11-28T07:22:51.356Z,40.10
2022-11-28T07:25:18.014Z,33.10
2022-11-28T07:27:44.425Z,30.50
2022-11-28T07:30:11.092Z,28.60
2022-11-28T07:32:40.717Z,28.60
2022-11-28T07:35:08.080Z,28.10
2022-11-28T07:37:34.942Z,24.10
2022-11-28T07:40:01.628Z,24.50
2022-11-28T07:42:28.194Z,27.10
2022-11-28T07:44:54.631Z,25.70
2022-11-28T07:47:21.354Z,27.60
2022-11-28T07:49:47.732Z,28.50
2022-11-28T07:52:14.256Z,30.50
2022-11-28T07:54:40.793Z,32.40
2022-11-28T07:57:14.423Z,42.20
2022-11-28T07:59:41.247Z,30.40
2022-11-28T08:02:10.736Z,27.90
2022-11-28T08:04:37.678Z,43.20
2022-11-28T08:07:04.843Z,33.50
2022-11-28T08:09:32.535Z,48.50
2022-11-28T08:11:59.150Z,36.40
2022-11-28T08:14:25.614Z,38.40
2022-11-28T08:16:52.009Z,44.50
2022-11-28T08:19:21.617Z,40.10
2022-11-28T08:21:51.524Z,34.10
2022-11-28T08:24:17.988Z,33.20
2022-11-28T08:26:44.448Z,36.10
2022-11-28T08:29:10.853Z,35.10
2022-11-28T08:31:38.614Z,33.50
2022-11-28T08:34:10.871Z,35.80
2022-11-28T08:36:37.445Z,32.80
2022-11-28T08:41:52.406Z,30.30
2022-11-28T08:44:18.880Z,22.60
2022-11-28T08:46:45.294Z,23.50
2022-11-28T08:49:11.776Z,24.70
2022-11-28T08:51:38.320Z,14.40
2022-11-28T08:54:05.041Z,17.30
2022-11-28T08:56:31.809Z,17.60
2022-11-28T08:58:58.227Z,18.30
2022-11-28T09:01:26.472Z,23.20
2022-11-28T09:03:54.779Z,15.20
2022-11-28T09:06:22.467Z,13.60
2022-11-28T09:08:50.471Z,14.30
2022-11-28T09:11:20.892Z,13.00
2022-11-28T09:13:48.156Z,13.80
2022-11-28T09:16:15.696Z,13.60
2022-11-28T09:18:42.773Z,11.30
2022-11-28T09:21:11.947Z,12.40
2022-11-28T09:23:40.331Z,10.60
2022-11-28T09:26:20.960Z,11.80
2022-11-28T09:28:47.740Z,12.80
2022-11-28T09:31:15.539Z,11.10
2022-11-28T09:33:42.693Z,9.80
2022-11-28T09:36:14.785Z,10.50
2022-11-28T09:38:41.824Z,12.50
2022-11-28T09:41:37.348Z,10.70
2022-11-28T09:44:18.535Z,11.50
2022-11-28T09:46:48.148Z,11.60
2022-11-28T09:49:25.449Z,11.60
2022-11-28T09:52:27.391Z,21.80
2022-11-28T09:55:06.745Z,22.30
2022-11-28T09:57:43.636Z,21.30
2022-11-28T10:00:38.878Z,16.90
2022-11-28T10:03:32.864Z,16.30
2022-11-28T10:06:11.651Z,11.80
2022-11-28T10:08:59.497Z,10.40
2022-11-28T10:11:52.729Z,11.20
2022-11-28T10:14:57.091Z,14.20
2022-11-28T10:17:47.422Z,13.20
2022-11-28T10:20:28.251Z,13.90
2022-11-28T10:23:13.559Z,7.50
2022-11-28T10:25:51.770Z,3.80
2022-11-28T10:28:23.739Z,3.50
2022-11-28T10:31:27.541Z,3.20
2022-11-28T10:34:02.703Z,3.40
2022-11-28T10:36:47.153Z,3.80
2022-11-28T10:39:14.304Z,3.50
2022-11-28T10:41:45.565Z,4.00
2022-11-28T10:47:21.447Z,4.00
2022-11-28T10:49:50.889Z,5.30
2022-11-28T10:52:31.920Z,3.70
2022-11-28T10:55:32.551Z,4.10
2022-11-28T10:58:22.583Z,3.40
2022-11-28T11:00:54.129Z,3.70
2022-11-28T11:05:50.281Z,4.10
2022-11-28T11:08:22.564Z,4.20
2022-11-28T11:11:03.027Z,3.90
2022-11-28T11:13:32.254Z,3.80
2022-11-28T11:16:02.990Z,3.80
2022-11-28T11:18:50.385Z,4.50
2022-11-28T11:21:20.421Z,3.30
2022-11-28T11:23:48.892Z,3.40
2022-11-28T11:26:32.695Z,4.00
2022-11-28T11:28:59.452Z,4.40
2022-11-28T11:31:30.227Z,4.80
2022-11-28T11:34:14.180Z,5.10
2022-11-28T11:36:41.050Z,5.70
2022-11-28T11:39:19.063Z,7.70
2022-11-28T11:41:48.952Z,5.20
2022-11-28T11:44:15.386Z,4.40
2022-11-28T11:46:51.758Z,8.20
2022-11-28T11:49:32.209Z,5.60
2022-11-28T11:52:23.048Z,3.70
2022-11-28T11:55:13.660Z,3.90
2022-11-28T11:57:46.624Z,4.10
2022-11-28T12:00:13.092Z,4.00
2022-11-28T12:02:47.619Z,4.50
2022-11-28T12:05:14.226Z,4.40
2022-11-28T12:07:59.708Z,3.60
2022-11-28T12:10:30.149Z,3.70
2022-11-28T12:12:57.016Z,4.40
2022-11-28T12:15:52.760Z,4.90
2022-11-28T12:18:37.067Z,3.80
2022-11-28T12:21:20.419Z,4.30
2022-11-28T12:24:17.666Z,5.00
2022-11-28T12:26:51.826Z,6.00
2022-11-28T12:29:39.762Z,4.60
2022-11-28T12:32:29.181Z,4.20
2022-11-28T12:35:13.958Z,4.30
2022-11-28T12:38:12.770Z,4.30
2022-11-28T12:40:51.730Z,4.30
2022-11-28T12:43:55.612Z,4.80
2022-11-28T12:46:31.830Z,5.10
2022-11-28T12:49:23.737Z,4.00
2022-11-28T12:52:28.039Z,4.80
2022-11-28T12:55:08.567Z,5.30
2022-11-28T12:57:48.539Z,5.20
2022-11-28T13:00:27.095Z,5.00
2022-11-28T13:03:20.836Z,5.10
2022-11-28T13:06:03.652Z,6.20
2022-11-28T13:08:48.507Z,5.80
2022-11-28T13:11:43.355Z,6.40
2022-11-28T13:14:15.429Z,6.10
2022-11-28T13:16:51.094Z,6.70
2022-11-28T13:19:52.436Z,7.90
2022-11-28T13:22:24.677Z,7.50
2022-11-28T13:25:35.587Z,7.50
2022-11-28T13:28:12.060Z,5.90
2022-11-28T13:30:45.508Z,8.40
2022-11-28T13:33:30.368Z,9.20
2022-11-28T13:35:59.973Z,7.70
2022-11-28T13:39:08.208Z,7.10
2022-11-28T13:42:28.309Z,7.90
2022-11-28T13:44:58.522Z,8.40
2022-11-28T13:47:32.907Z,9.40
2022-11-28T13:50:30.480Z,9.60
2022-11-28T13:53:10.423Z,8.60
2022-11-28T13:55:42.759Z,8.50
2022-11-28T13:58:40.169Z,8.50
2022-11-28T14:01:15.927Z,9.20
2022-11-28T14:03:47.789Z,9.80
2022-11-28T14:06:18.936Z,8.70
2022-11-28T14:08:47.947Z,10.90
2022-11-28T14:11:41.809Z,11.00
2022-11-28T14:14:22.803Z,11.50
2022-11-28T14:17:10.833Z,9.90
2022-11-28T14:19:58.664Z,17.10
2022-11-28T14:22:50.651Z,13.80
2022-11-28T14:25:26.320Z,11.70
2022-11-28T14:27:57.210Z,11.80
2022-11-28T14:30:31.840Z,11.20
2022-11-28T14:33:03.092Z,10.70
2022-11-28T14:35:54.561Z,23.40
2022-11-28T14:38:30.023Z,14.30
2022-11-28T14:40:56.504Z,22.60
2022-11-28T14:43:46.535Z,17.40
2022-11-28T14:46:16.297Z,18.70
2022-11-28T14:49:17.356Z,18.20
2022-11-28T14:51:49.658Z,15.70
2022-11-28T14:54:34.403Z,23.20
2022-11-28T14:57:02.166Z,24.50
2022-11-28T14:59:33.846Z,24.80
2022-11-28T15:02:12.337Z,29.00
2022-11-28T15:04:38.767Z,28.60
2022-11-28T15:07:16.965Z,86.40
2022-11-28T15:09:52.815Z,65.80
2022-11-28T15:12:40.799Z,59.10
2022-11-28T15:15:13.788Z,62.80
2022-11-28T15:17:44.129Z,97.90
2022-11-28T15:20:39.684Z,30.70
2022-11-28T15:23:35.069Z,31.70
2022-11-28T15:26:02.928Z,68.70
2022-11-28T15:28:31.243Z,39.40
2022-11-28T15:31:00.894Z,41.40
2022-11-28T15:33:28.472Z,41.90
2022-11-28T15:36:02.118Z,51.60
2022-11-28T15:38:31.194Z,58.00
2022-11-28T15:40:59.194Z,58.40
2022-11-28T15:43:26.529Z,59.00
2022-11-28T15:45:56.247Z,68.40
2022-11-28T15:48:25.758Z,139.60
2022-11-28T15:50:52.811Z,113.70
2022-11-28T15:53:20.884Z,94.30
2022-11-28T15:55:48.037Z,106.00
2022-11-28T15:58:25.539Z,141.60
2022-11-28T16:01:02.873Z,82.00
2022-11-28T16:03:34.796Z,108.40
2022-11-28T16:06:02.853Z,77.30
2022-11-28T16:08:35.454Z,62.20
2022-11-28T16:11:05.060Z,83.80
2022-11-28T16:13:32.467Z,96.70
2022-11-28T16:16:01.549Z,84.50
2022-11-28T16:18:29.404Z,69.90
2022-11-28T16:20:58.270Z,52.40
2022-11-28T16:23:32.795Z,48.50
2022-11-28T16:26:19.131Z,40.00
2022-11-28T16:28:57.866Z,41.50
2022-11-28T16:31:27.061Z,52.20
2022-11-28T16:33:53.992Z,65.30
2022-11-28T16:36:36.493Z,44.10
2022-11-28T16:39:14.351Z,39.50
2022-11-28T16:41:43.926Z,38.10
2022-11-28T16:44:14.264Z,38.60
2022-11-28T16:46:58.002Z,52.40
2022-11-28T16:49:32.513Z,61.60
2022-11-28T16:52:23.834Z,89.50
2022-11-28T16:54:51.509Z,93.50
2022-11-28T16:57:18.578Z,104.60
2022-11-28T16:59:46.126Z,119.80
2022-11-28T17:02:16.619Z,102.80
2022-11-28T17:04:43.996Z,105.10
2022-11-28T17:07:16.076Z,98.10
2022-11-28T17:09:44.486Z,104.70
2022-11-28T17:12:14.923Z,100.50
2022-11-28T17:14:41.545Z,540.20
2022-11-28T17:17:16.993Z,351.30
2022-11-28T17:19:44.199Z,385.80
2022-11-28T17:22:16.833Z,255.00
2022-11-28T17:24:44.466Z,278.30
2022-11-28T17:27:14.723Z,194.90
2022-11-28T17:29:42.143Z,213.40
2022-11-28T17:32:13.641Z,230.10
2022-11-28T17:34:40.781Z,150.00
2022-11-28T17:37:08.053Z,149.00
2022-11-28T17:39:34.759Z,156.30
2022-11-28T17:42:01.216Z,155.50
2022-11-28T17:44:33.800Z,117.50
2022-11-28T17:47:02.004Z,92.80
2022-11-28T17:49:29.585Z,82.00
2022-11-28T17:51:56.281Z,86.40
2022-11-28T17:54:25.202Z,94.50
2022-11-28T17:56:52.870Z,90.40
2022-11-28T17:59:23.993Z,90.50
2022-11-28T18:01:50.820Z,93.10
2022-11-28T18:04:17.711Z,85.10
2022-11-28T18:06:45.328Z,105.50
2022-11-28T18:09:13.292Z,103.30
2022-11-28T18:11:43.042Z,105.20
2022-11-28T18:14:09.745Z,97.40
2022-11-28T18:16:36.678Z,95.80
2022-11-28T18:19:04.322Z,104.80
2022-11-28T18:21:31.584Z,105.90
2022-11-28T18:23:58.057Z,134.40
2022-11-28T18:26:25.467Z,105.10
2022-11-28T18:28:52.439Z,79.60
2022-11-28T18:31:24.658Z,93.10
2022-11-28T18:33:52.935Z,113.40
2022-11-28T18:36:24.236Z,102.20
2022-11-28T18:39:02.271Z,87.10
2022-11-28T18:41:30.103Z,76.60
2022-11-28T18:43:58.491Z,86.70
2022-11-28T18:46:26.089Z,95.20
2022-11-28T18:48:53.515Z,102.10
2022-11-28T18:51:26.065Z,146.60
2022-11-28T18:53:56.225Z,146.80
2022-11-28T18:56:23.886Z,95.40
2022-11-28T18:58:53.140Z,110.40
2022-11-28T19:01:31.107Z,159.20
2022-11-28T19:04:00.324Z,178.90
2022-11-28T19:06:27.147Z,159.30
2022-11-28T19:08:56.572Z,150.10
2022-11-28T19:11:23.409Z,144.50
2022-11-28T19:13:50.764Z,210.10
2022-11-28T19:16:20.189Z,187.00
2022-11-28T19:18:47.015Z,144.60
2022-11-28T19:21:16.634Z,140.50
2022-11-28T19:23:43.774Z,141.50
2022-11-28T19:26:12.887Z,112.80
2022-11-28T19:28:41.463Z,124.70
2022-11-28T19:31:13.096Z,147.20
2022-11-28T19:33:39.663Z,147.10
2022-11-28T19:36:08.376Z,146.70
2022-11-28T19:38:36.598Z,139.30
2022-11-28T19:41:14.725Z,159.00
2022-11-28T19:43:41.797Z,180.00
2022-11-28T19:46:09.508Z,196.70
2022-11-28T19:48:37.514Z,106.40
2022-11-28T19:51:05.223Z,101.70
2022-11-28T19:53:33.059Z,149.60
2022-11-28T19:56:18.871Z,148.00
2022-11-28T19:58:46.000Z,166.40
2022-11-28T20:01:24.079Z,148.30
2022-11-28T20:03:51.501Z,135.40
2022-11-28T20:06:23.592Z,147.60
2022-11-28T20:08:51.466Z,192.30
2022-11-28T20:11:23.636Z,164.20
2022-11-28T20:13:55.265Z,131.10
2022-11-28T20:16:21.854Z,144.70
2022-11-28T20:18:48.644Z,144.00
2022-11-28T20:21:19.826Z,120.00
2022-11-28T20:23:49.505Z,130.10
2022-11-28T20:26:18.123Z,229.80
2022-11-28T20:28:45.569Z,92.30
2022-11-28T20:31:30.161Z,92.90
2022-11-28T20:33:57.702Z,82.60
2022-11-28T20:36:25.961Z,75.60
2022-11-28T20:38:53.516Z,82.70
2022-11-28T20:41:21.403Z,80.60
2022-11-28T20:43:48.762Z,86.20
2022-11-28T20:46:21.206Z,102.80
2022-11-28T20:48:49.626Z,124.80
2022-11-28T20:51:22.755Z,133.60
2022-11-28T20:53:49.258Z,137.80
2022-11-28T20:56:24.204Z,135.10
2022-11-28T20:58:51.366Z,149.10
2022-11-28T21:01:23.327Z,130.00
2022-11-28T21:03:50.670Z,133.00
2022-11-28T21:06:17.755Z,136.90
2022-11-28T21:08:44.563Z,140.70
2022-11-28T21:11:43.810Z,145.50
2022-11-28T21:14:08.831Z,139.10
2022-11-28T21:16:35.807Z,134.60
2022-11-28T21:19:05.750Z,125.70
2022-11-28T21:21:34.383Z,108.80
2022-11-28T21:24:05.062Z,115.20
2022-11-28T21:26:37.590Z,104.10
2022-11-28T21:29:08.892Z,95.70
2022-11-28T21:31:39.773Z,93.90
2022-11-28T21:34:06.479Z,71.10
2022-11-28T21:36:33.015Z,133.40
2022-11-28T21:39:01.300Z,124.80
2022-11-28T21:41:32.546Z,118.80
2022-11-28T21:44:00.217Z,123.60
2022-11-28T21:46:27.460Z,118.90
2022-11-28T21:48:53.968Z,118.90
2022-11-28T21:51:22.998Z,118.20
2022-11-28T21:53:49.646Z,120.10
2022-11-28T21:56:16.288Z,124.50
2022-11-28T21:58:42.864Z,107.50
2022-11-28T22:01:12.281Z,101.50
2022-11-28T22:03:40.457Z,109.90
2022-11-28T22:06:08.986Z,110.70
2022-11-28T22:08:35.812Z,116.60
2022-11-28T22:11:06.708Z,113.30
2022-11-28T22:13:33.267Z,122.00
2022-11-28T22:15:59.903Z,119.70
2022-11-28T22:18:29.551Z,108.70
2022-11-28T22:21:12.915Z,109.50
2022-11-28T22:23:50.894Z,98.30
2022-11-28T22:26:17.624Z,114.90
2022-11-28T22:28:47.884Z,110.00
2022-11-28T22:31:20.042Z,107.70
2022-11-28T22:33:48.547Z,92.20
2022-11-28T22:36:17.653Z,82.60
2022-11-28T22:38:45.538Z,92.20
2022-11-28T22:41:19.806Z,102.50
2022-11-28T22:43:51.271Z,106.10
2022-11-28T22:46:17.907Z,96.40
2022-11-28T22:48:44.617Z,94.40
2022-11-28T22:51:15.800Z,92.40
2022-11-28T22:53:42.493Z,81.80
2022-11-28T22:56:12.783Z,79.00
2022-11-28T22:58:42.849Z,69.00
2022-11-28T23:01:15.358Z,71.60
2022-11-28T23:03:41.863Z,67.10
2022-11-28T23:06:14.032Z,69.80
2022-11-28T23:08:41.594Z,68.00
2022-11-28T23:11:17.008Z,68.40
2022-11-28T23:13:44.794Z,61.40
2022-11-28T23:16:24.249Z,61.90
2022-11-28T23:18:53.307Z,60.00
2022-11-28T23:21:21.749Z,63.10
2022-11-28T23:23:48.709Z,66.70
2022-11-28T23:26:20.811Z,66.10
2022-11-28T23:28:47.811Z,64.60
2022-11-28T23:31:23.751Z,64.70
2022-11-28T23:33:51.693Z,60.00
2022-11-28T23:36:24.872Z,69.70
2022-11-28T23:38:57.226Z,63.60
2022-11-28T23:41:24.727Z,62.70
2022-11-28T23:43:51.223Z,62.20
2022-11-28T23:46:19.589Z,71.60
2022-11-28T23:48:47.071Z,76.20
2022-11-28T23:51:15.948Z,64.50
2022-11-28T23:53:43.515Z,66.10
2022-11-28T23:56:19.624Z,66.00
2022-11-28T23:58:46.627Z,66.80
